createdAt,value
2022-09-23T00:00:44.863Z,8.31
2022-09-23T00:02:17.076Z,8.26
2022-09-23T00:03:49.445Z,8.22
2022-09-23T00:05:21.235Z,8.19
2022-09-23T00:06:52.880Z,8.18
2022-09-23T00:08:24.409Z,8.19
2022-09-23T00:09:56.511Z,8.22
2022-09-23T00:11:28.385Z,8.22
2022-09-23T00:12:59.980Z,8.24
2022-09-23T00:14:31.945Z,8.25
2022-09-23T00:16:04.982Z,8.25
2022-09-23T00:17:36.549Z,8.23
2022-09-23T00:19:08.385Z,8.22
2022-09-23T00:20:40.781Z,8.25
2022-09-23T00:22:14.085Z,8.26
2022-09-23T00:23:45.777Z,8.25
2022-09-23T00:25:17.328Z,8.26
2022-09-23T00:26:48.958Z,8.27
2022-09-23T00:28:20.533Z,8.30
2022-09-23T00:29:52.202Z,8.33
2022-09-23T00:31:24.616Z,8.31
2022-09-23T00:32:57.310Z,8.32
2022-09-23T00:34:29.980Z,8.30
2022-09-23T00:36:02.317Z,8.26
2022-09-23T00:37:33.870Z,8.22
2022-09-23T00:39:05.965Z,8.16
2022-09-23T00:40:42.784Z,8.13
2022-09-23T00:42:16.530Z,8.13
2022-09-23T00:43:49.308Z,8.10
2022-09-23T00:45:20.895Z,8.09
2022-09-23T00:46:52.433Z,8.08
2022-09-23T00:48:24.152Z,8.08
2022-09-23T00:50:13.934Z,8.09
2022-09-23T00:51:47.113Z,8.11
2022-09-23T00:53:20.145Z,8.10
2022-09-23T00:54:52.315Z,8.10
2022-09-23T00:56:23.879Z,8.08
2022-09-23T00:57:56.043Z,8.06
2022-09-23T00:59:29.276Z,8.03
2022-09-23T01:01:01.050Z,8.00
2022-09-23T01:02:33.127Z,7.99
2022-09-23T01:04:05.134Z,7.99
2022-09-23T01:05:36.754Z,7.95
2022-09-23T01:07:08.297Z,7.90
2022-09-23T01:08:40.656Z,7.88
2022-09-23T01:10:13.857Z,7.86
2022-09-23T01:11:51.469Z,7.86
2022-09-23T01:13:36.091Z,7.87
2022-09-23T01:15:24.009Z,7.87
2022-09-23T01:16:58.926Z,7.86
2022-09-23T01:18:33.466Z,7.85
2022-09-23T01:20:24.555Z,7.82
2022-09-23T01:22:11.073Z,7.80
2022-09-23T01:23:57.607Z,7.77
2022-09-23T01:25:29.193Z,7.75
2022-09-23T01:27:00.774Z,7.71
2022-09-23T01:28:35.400Z,7.68
2022-09-23T01:30:07.115Z,7.65
2022-09-23T01:31:43.564Z,7.62
2022-09-23T01:33:21.293Z,7.58
2022-09-23T01:34:52.864Z,7.54
2022-09-23T01:36:26.218Z,7.52
2022-09-23T01:38:05.106Z,7.48
2022-09-23T01:39:37.799Z,7.46
2022-09-23T01:41:16.851Z,7.45
2022-09-23T01:42:53.196Z,7.46
2022-09-23T01:44:29.720Z,7.46
2022-09-23T01:46:01.542Z,7.47
2022-09-23T01:47:43.149Z,7.47
2022-09-23T01:49:22.289Z,7.47
2022-09-23T01:50:58.934Z,7.48
2022-09-23T01:52:32.955Z,7.53
2022-09-23T01:54:06.360Z,7.59
2022-09-23T01:55:38.783Z,7.63
2022-09-23T01:57:12.234Z,7.69
2022-09-23T01:58:48.404Z,7.70
2022-09-23T02:00:20.207Z,7.73
2022-09-23T02:01:57.817Z,7.71
2022-09-23T02:03:32.643Z,7.72
2022-09-23T02:05:19.425Z,7.74
2022-09-23T02:07:01.348Z,7.72
2022-09-23T02:08:41.923Z,7.71
2022-09-23T02:10:16.047Z,7.69
2022-09-23T02:11:48.458Z,7.68
2022-09-23T02:13:22.706Z,7.68
2022-09-23T02:14:57.710Z,7.62
2022-09-23T02:16:34.124Z,7.56
2022-09-23T02:18:10.109Z,7.55
2022-09-23T02:19:43.804Z,7.48
2022-09-23T02:21:15.890Z,7.41
2022-09-23T02:22:56.522Z,7.34
2022-09-23T02:24:29.633Z,7.29
2022-09-23T02:26:27.852Z,7.27
2022-09-23T02:28:19.461Z,7.24
2022-09-23T02:29:56.721Z,7.24
2022-09-23T02:31:38.008Z,7.23
2022-09-23T02:33:15.957Z,7.21
2022-09-23T02:35:08.540Z,7.22
2022-09-23T02:36:42.731Z,7.24
2022-09-23T02:38:35.877Z,7.27
2022-09-23T02:40:29.628Z,7.27
2022-09-23T02:42:07.922Z,7.32
2022-09-23T02:43:45.358Z,7.32
2022-09-23T02:45:16.970Z,7.31
2022-09-23T02:46:52.518Z,7.28
2022-09-23T02:48:27.546Z,7.28
2022-09-23T02:49:59.153Z,7.27
2022-09-23T02:51:34.520Z,7.25
2022-09-23T02:53:06.310Z,7.23
2022-09-23T02:54:38.303Z,7.23
2022-09-23T02:56:16.297Z,7.19
2022-09-23T02:57:48.390Z,7.19
2022-09-23T02:59:20.602Z,7.18
2022-09-23T03:00:58.140Z,7.15
2022-09-23T03:02:36.229Z,7.19
2022-09-23T03:04:07.949Z,7.26
2022-09-23T03:05:42.277Z,7.27
2022-09-23T03:07:14.923Z,7.26
2022-09-23T03:08:53.449Z,7.26
2022-09-23T03:10:26.568Z,7.23
2022-09-23T03:12:16.592Z,7.21
2022-09-23T03:14:00.369Z,7.20
2022-09-23T03:15:32.129Z,7.19
2022-09-23T03:17:05.021Z,7.18
2022-09-23T03:18:37.867Z,7.15
2022-09-23T03:20:18.152Z,7.12
2022-09-23T03:21:52.211Z,7.08
2022-09-23T03:23:26.999Z,7.08
2022-09-23T03:25:00.330Z,7.06
2022-09-23T03:26:32.463Z,7.06
2022-09-23T03:28:04.167Z,7.04
2022-09-23T03:29:37.085Z,7.02
2022-09-23T03:31:08.835Z,7.00
2022-09-23T03:32:42.318Z,7.01
2022-09-23T03:34:15.455Z,7.03
2022-09-23T03:36:11.102Z,7.02
2022-09-23T03:38:02.858Z,6.95
2022-09-23T03:39:36.375Z,6.88
2022-09-23T03:41:09.615Z,6.86
2022-09-23T03:42:41.253Z,6.85
2022-09-23T03:44:12.870Z,6.85
2022-09-23T03:45:45.961Z,6.85
2022-09-23T03:47:18.907Z,6.87
2022-09-23T03:48:50.557Z,6.84
2022-09-23T03:50:22.590Z,6.83
2022-09-23T03:51:54.937Z,6.81
2022-09-23T03:53:26.527Z,6.77
2022-09-23T03:54:58.116Z,6.76
2022-09-23T03:56:29.703Z,6.72
2022-09-23T03:58:03.272Z,6.69
2022-09-23T03:59:34.955Z,6.66
2022-09-23T04:01:06.903Z,6.63
2022-09-23T04:02:38.737Z,6.59
2022-09-23T04:04:10.401Z,6.58
2022-09-23T04:05:43.218Z,6.56
2022-09-23T04:07:15.116Z,6.55
2022-09-23T04:08:46.805Z,6.52
2022-09-23T04:10:18.501Z,6.50
2022-09-23T04:11:50.487Z,6.53
2022-09-23T04:13:22.218Z,6.54
2022-09-23T04:14:53.840Z,6.53
2022-09-23T04:16:25.461Z,6.58
2022-09-23T04:17:57.348Z,6.57
2022-09-23T04:19:29.053Z,6.54
2022-09-23T04:21:00.717Z,6.56
2022-09-23T04:22:33.227Z,6.59
2022-09-23T04:24:04.818Z,6.59
2022-09-23T04:25:36.472Z,6.59
2022-09-23T04:27:08.308Z,6.61
2022-09-23T04:28:39.953Z,6.63
2022-09-23T04:30:12.251Z,6.61
2022-09-23T04:31:43.830Z,6.60
2022-09-23T04:33:15.581Z,6.59
2022-09-23T04:34:47.119Z,6.59
2022-09-23T04:36:18.837Z,6.59
2022-09-23T04:37:50.486Z,6.57
2022-09-23T04:39:22.481Z,6.59
2022-09-23T04:40:54.236Z,6.60
2022-09-23T04:42:28.407Z,6.62
2022-09-23T04:44:00.157Z,6.63
2022-09-23T04:45:31.829Z,6.63
2022-09-23T04:47:04.551Z,6.62
2022-09-23T04:48:36.996Z,6.63
2022-09-23T04:50:08.889Z,6.64
2022-09-23T04:51:44.309Z,6.73
2022-09-23T04:53:16.809Z,6.81
2022-09-23T04:54:48.598Z,6.88
2022-09-23T04:56:22.010Z,6.97
2022-09-23T04:57:53.718Z,7.05
2022-09-23T04:59:25.296Z,7.11
2022-09-23T05:01:01.706Z,7.17
2022-09-23T05:02:37.174Z,7.19
2022-09-23T05:04:10.263Z,7.12
2022-09-23T05:05:41.802Z,7.10
2022-09-23T05:07:13.377Z,7.13
2022-09-23T05:08:48.525Z,7.16
2022-09-23T05:10:20.140Z,7.26
2022-09-23T05:11:52.214Z,7.32
2022-09-23T05:13:24.211Z,7.40
2022-09-23T05:14:57.155Z,7.53
2022-09-23T05:16:29.552Z,7.65
2022-09-23T05:18:02.874Z,7.77
2022-09-23T05:19:34.487Z,7.91
2022-09-23T05:21:06.280Z,8.04
2022-09-23T05:22:37.933Z,8.19
2022-09-23T05:24:09.899Z,8.31
2022-09-23T05:25:42.790Z,8.47
2022-09-23T05:27:14.386Z,8.60
2022-09-23T05:28:45.977Z,8.68
2022-09-23T05:30:17.932Z,8.78
2022-09-23T05:31:49.484Z,8.83
2022-09-23T05:33:21.392Z,8.90
2022-09-23T05:34:54.805Z,8.93
2022-09-23T05:36:26.711Z,8.95
2022-09-23T05:37:58.209Z,8.99
2022-09-23T05:39:31.216Z,9.01
2022-09-23T05:41:06.204Z,9.06
2022-09-23T05:42:37.753Z,9.02
2022-09-23T05:44:10.966Z,8.93
2022-09-23T05:45:42.624Z,8.89
2022-09-23T05:47:14.557Z,8.84
2022-09-23T05:48:47.438Z,8.90
2022-09-23T05:50:19.046Z,8.95
2022-09-23T05:51:50.833Z,9.02
2022-09-23T05:53:22.809Z,9.06
2022-09-23T05:54:54.380Z,9.10
2022-09-23T05:56:26.424Z,9.10
2022-09-23T05:57:58.070Z,9.09
2022-09-23T05:59:29.706Z,9.06
2022-09-23T06:01:01.357Z,9.06
2022-09-23T06:02:33.252Z,9.09
2022-09-23T06:04:05.650Z,9.08
2022-09-23T06:05:37.554Z,9.09
2022-09-23T06:07:09.187Z,9.12
2022-09-23T06:08:41.293Z,9.16
2022-09-23T06:10:12.873Z,9.14
2022-09-23T06:11:44.612Z,9.09
2022-09-23T06:13:16.428Z,9.10
2022-09-23T06:14:48.973Z,9.10
2022-09-23T06:16:20.776Z,8.97
2022-09-23T06:17:52.639Z,8.79
2022-09-23T06:19:24.223Z,8.67
2022-09-23T06:20:55.754Z,8.53
2022-09-23T06:22:27.734Z,8.51
2022-09-23T06:24:03.088Z,8.54
2022-09-23T06:25:35.034Z,8.61
2022-09-23T06:27:07.817Z,8.70
2022-09-23T06:28:40.575Z,8.81
2022-09-23T06:30:12.319Z,8.97
2022-09-23T06:31:44.144Z,9.19
2022-09-23T06:33:16.852Z,9.45
2022-09-23T06:34:52.096Z,9.66
2022-09-23T06:36:39.736Z,9.74
2022-09-23T06:38:13.369Z,9.89
2022-09-23T06:39:45.000Z,10.00
2022-09-23T06:41:16.812Z,10.09
2022-09-23T06:42:52.305Z,10.29
2022-09-23T06:44:24.167Z,10.39
2022-09-23T06:45:56.449Z,10.53
2022-09-23T06:47:29.300Z,10.76
2022-09-23T06:49:03.405Z,10.88
2022-09-23T06:50:35.135Z,11.02
2022-09-23T07:30:03.420Z,12.46
2022-09-23T07:31:39.742Z,12.68
2022-09-23T07:33:26.552Z,12.85
2022-09-23T07:35:01.842Z,12.97
2022-09-23T07:36:33.454Z,13.13
2022-09-23T07:38:05.074Z,13.36
2022-09-23T07:39:36.921Z,13.59
2022-09-23T07:41:09.156Z,13.77
2022-09-23T07:42:41.259Z,13.80
2022-09-23T07:44:12.930Z,13.70
2022-09-23T07:45:45.690Z,13.70
2022-09-23T07:47:17.445Z,13.85
2022-09-23T07:48:49.312Z,13.98
2022-09-23T07:50:22.708Z,13.97
2022-09-23T07:51:54.690Z,14.03
2022-09-23T07:53:26.923Z,14.06
2022-09-23T07:54:58.660Z,14.01
2022-09-23T07:56:30.973Z,13.89
2022-09-23T07:58:03.223Z,13.92
2022-09-23T07:59:35.171Z,14.00
2022-09-23T08:01:08.107Z,14.05
2022-09-23T08:02:40.475Z,14.06
2022-09-23T08:04:33.361Z,13.92
2022-09-23T08:06:05.543Z,14.00
2022-09-23T08:07:37.793Z,14.17
2022-09-23T08:09:09.521Z,14.32
2022-09-23T08:10:41.238Z,14.41
2022-09-23T08:12:16.142Z,14.61
2022-09-23T08:13:48.208Z,14.85
2022-09-23T08:15:19.920Z,15.12
2022-09-23T08:16:52.037Z,15.33
2022-09-23T08:18:23.786Z,15.53
2022-09-23T08:19:55.559Z,15.55
2022-09-23T08:21:27.222Z,15.60
2022-09-23T08:22:59.403Z,15.61
2022-09-23T08:24:32.478Z,15.72
2022-09-23T08:26:05.151Z,15.80
2022-09-23T08:27:37.142Z,15.88
2022-09-23T08:29:12.265Z,15.98
2022-09-23T08:30:44.719Z,15.96
2022-09-23T08:32:16.894Z,15.82
2022-09-23T08:33:48.799Z,15.86
2022-09-23T08:35:21.003Z,15.94
2022-09-23T08:36:53.213Z,15.93
2022-09-23T08:38:24.827Z,15.99
2022-09-23T08:39:56.736Z,16.04
2022-09-23T08:41:34.954Z,16.09
2022-09-23T08:43:07.361Z,16.17
2022-09-23T08:44:52.219Z,16.25
2022-09-23T08:46:27.968Z,16.16
2022-09-23T08:48:20.248Z,16.09
2022-09-23T08:50:07.819Z,15.90
2022-09-23T08:51:41.151Z,15.76
2022-09-23T08:53:19.428Z,15.73
2022-09-23T08:54:55.244Z,15.72
2022-09-23T08:56:27.314Z,15.74
2022-09-23T08:58:27.200Z,15.79
2022-09-23T08:59:59.419Z,15.86
2022-09-23T09:01:35.058Z,15.96
2022-09-23T09:03:33.437Z,16.17
2022-09-23T09:05:07.865Z,16.43
2022-09-23T09:06:52.929Z,16.56
2022-09-23T09:08:27.420Z,16.63
2022-09-23T09:10:06.468Z,16.69
2022-09-23T09:11:39.132Z,16.86
2022-09-23T09:13:31.601Z,16.95
2022-09-23T09:15:08.189Z,17.07
2022-09-23T09:17:02.151Z,17.21
2022-09-23T09:18:33.959Z,17.50
2022-09-23T09:20:05.904Z,17.70
2022-09-23T09:21:38.916Z,17.83
2022-09-23T09:23:23.045Z,17.94
2022-09-23T09:24:55.113Z,18.05
2022-09-23T09:26:28.031Z,18.07
2022-09-23T09:27:59.917Z,18.20
2022-09-23T09:29:35.740Z,18.42
2022-09-23T09:31:21.560Z,18.60
2022-09-23T09:32:58.651Z,18.76
2022-09-23T09:34:30.253Z,18.76
2022-09-23T09:36:18.366Z,18.76
2022-09-23T09:37:50.103Z,18.74
2022-09-23T09:39:26.000Z,18.69
2022-09-23T09:41:00.468Z,18.74
2022-09-23T09:42:41.251Z,18.84
2022-09-23T09:44:32.581Z,18.97
2022-09-23T09:46:14.291Z,19.15
2022-09-23T09:47:47.098Z,19.27
2022-09-23T09:49:23.618Z,19.35
2022-09-23T09:50:56.395Z,19.30
2022-09-23T09:52:30.192Z,19.19
2022-09-23T09:54:23.269Z,19.09
2022-09-23T09:56:05.560Z,19.03
2022-09-23T09:57:38.357Z,18.99
2022-09-23T09:59:16.626Z,18.94
2022-09-23T10:00:50.831Z,18.85
2022-09-23T10:02:25.035Z,18.71
2022-09-23T10:03:59.568Z,18.79
2022-09-23T10:05:46.485Z,18.86
2022-09-23T10:07:19.275Z,19.03
2022-09-23T10:09:09.951Z,19.08
2022-09-23T10:10:44.794Z,19.17
2022-09-23T10:12:20.171Z,19.14
2022-09-23T10:14:02.659Z,19.14
2022-09-23T10:15:44.719Z,19.07
2022-09-23T10:17:28.951Z,19.02
2022-09-23T10:19:01.196Z,18.94
2022-09-23T10:20:36.602Z,18.87
2022-09-23T10:22:10.075Z,18.74
2022-09-23T10:23:43.007Z,18.68
2022-09-23T10:25:20.756Z,18.59
2022-09-23T10:26:55.266Z,18.45
2022-09-23T10:28:43.213Z,18.32
2022-09-23T10:30:24.887Z,18.15
2022-09-23T10:32:15.574Z,18.07
2022-09-23T10:33:48.416Z,18.01
2022-09-23T10:35:24.689Z,18.00
2022-09-23T10:37:07.983Z,17.92
2022-09-23T10:38:41.099Z,17.93
2022-09-23T10:40:40.362Z,17.90
2022-09-23T10:42:34.372Z,17.98
2022-09-23T10:44:11.966Z,18.02
2022-09-23T10:46:24.330Z,18.20
2022-09-23T10:47:57.608Z,18.33
2022-09-23T10:49:41.995Z,18.36
2022-09-23T10:51:26.388Z,18.35
2022-09-23T10:52:58.246Z,18.26
2022-09-23T10:54:32.493Z,18.25
2022-09-23T10:56:20.633Z,18.23
2022-09-23T10:57:55.733Z,18.19
2022-09-23T10:59:31.118Z,18.22
2022-09-23T11:01:09.221Z,18.24
2022-09-23T11:02:52.023Z,18.23
2022-09-23T11:04:42.435Z,18.24
2022-09-23T11:06:23.335Z,18.18
2022-09-23T11:07:57.429Z,18.13
2022-09-23T11:09:32.686Z,18.08
2022-09-23T11:11:04.738Z,18.04
2022-09-23T11:12:41.661Z,18.05
2022-09-23T11:14:31.834Z,18.07
2022-09-23T11:16:10.708Z,18.17
2022-09-23T11:17:58.887Z,18.25
2022-09-23T11:19:34.276Z,18.18
2022-09-23T11:21:32.564Z,18.34
2022-09-23T11:23:22.956Z,18.66
2022-09-23T11:25:03.546Z,18.94
2022-09-23T11:26:35.790Z,19.29
2022-09-23T11:28:10.685Z,19.59
2022-09-23T11:29:54.965Z,19.84
2022-09-23T11:31:47.551Z,20.00
2022-09-23T11:33:28.720Z,20.15
2022-09-23T11:35:20.738Z,20.38
2022-09-23T11:36:53.435Z,20.58
2022-09-23T11:38:30.458Z,20.70
2022-09-23T11:40:05.884Z,20.86
2022-09-23T11:41:38.513Z,20.92
2022-09-23T11:43:15.980Z,20.89
2022-09-23T11:44:50.336Z,20.85
2022-09-23T11:46:31.195Z,20.73
2022-09-23T12:31:32.370Z,20.82
2022-09-23T12:33:09.626Z,21.08
2022-09-23T12:34:44.454Z,21.30
2022-09-23T12:36:35.784Z,21.51
2022-09-23T12:38:33.596Z,21.65
2022-09-23T12:40:06.708Z,21.71
2022-09-23T12:41:41.913Z,21.85
2022-09-23T12:43:17.355Z,22.02
2022-09-23T12:44:49.794Z,22.11
2022-09-23T12:46:27.918Z,22.18
2022-09-23T12:48:00.137Z,22.31
2022-09-23T12:49:31.919Z,22.39
2022-09-23T12:51:03.626Z,22.52
2022-09-23T12:52:35.767Z,22.46
2022-09-23T12:54:23.129Z,22.34
2022-09-23T12:55:54.761Z,22.24
2022-09-23T12:57:35.783Z,22.06
2022-09-23T12:59:16.909Z,21.74
2022-09-23T13:01:05.969Z,21.57
2022-09-23T13:02:39.466Z,21.41
2022-09-23T13:04:48.793Z,21.27
2022-09-23T13:06:38.917Z,20.99
2022-09-23T13:08:16.518Z,20.77
2022-09-23T13:09:49.454Z,20.55
2022-09-23T13:11:28.545Z,20.45
2022-09-23T13:13:00.396Z,20.47
2022-09-23T13:14:32.794Z,20.54
2022-09-23T13:16:11.723Z,20.62
2022-09-23T13:17:43.530Z,20.80
2022-09-23T13:19:27.354Z,20.96
2022-09-23T13:20:59.049Z,21.11
2022-09-23T13:23:00.236Z,21.20
2022-09-23T13:24:36.552Z,21.19
2022-09-23T13:26:11.326Z,21.33
2022-09-23T13:27:43.240Z,21.46
2022-09-23T13:29:17.409Z,21.55
2022-09-23T13:30:50.470Z,21.61
2022-09-23T13:32:23.077Z,21.54
2022-09-23T13:33:57.133Z,21.51
2022-09-23T13:35:38.635Z,21.55
2022-09-23T13:37:22.427Z,21.64
2022-09-23T13:38:54.453Z,21.64
2022-09-23T13:40:27.908Z,21.67
2022-09-23T13:42:01.342Z,21.72
2022-09-23T13:43:40.285Z,21.77
2022-09-23T13:45:19.714Z,21.85
2022-09-23T13:46:52.140Z,21.94
2022-09-23T13:48:28.307Z,21.97
2022-09-23T13:50:00.485Z,22.03
2022-09-23T13:51:34.191Z,22.05
2022-09-23T13:53:06.942Z,22.00
2022-09-23T13:54:49.453Z,21.98
2022-09-23T13:56:21.383Z,22.03
2022-09-23T13:58:02.961Z,21.99
2022-09-23T13:59:38.330Z,21.99
2022-09-23T14:01:31.256Z,22.00
2022-09-23T14:03:03.745Z,22.00
2022-09-23T14:04:35.600Z,21.99
2022-09-23T14:06:11.128Z,21.98
2022-09-23T14:07:43.142Z,21.98
2022-09-23T14:09:14.904Z,21.91
2022-09-23T14:10:47.085Z,21.86
2022-09-23T14:12:22.463Z,21.85
2022-09-23T14:13:55.600Z,21.89
2022-09-23T14:15:27.274Z,21.85
2022-09-23T14:16:59.549Z,21.78
2022-09-23T14:18:31.851Z,21.71
2022-09-23T14:20:03.720Z,21.64
2022-09-23T14:21:36.186Z,21.55
2022-09-23T14:23:10.452Z,21.46
2022-09-23T14:24:43.093Z,21.44
2022-09-23T14:26:15.072Z,21.42
2022-09-23T14:27:47.435Z,21.37
2022-09-23T14:29:20.303Z,21.30
2022-09-23T14:30:52.683Z,21.24
2022-09-23T14:32:26.347Z,21.13
2022-09-23T14:33:58.003Z,21.04
2022-09-23T14:35:38.659Z,20.89
2022-09-23T14:37:34.999Z,20.77
2022-09-23T14:39:07.849Z,20.68
2022-09-23T14:41:17.253Z,20.62
2022-09-23T14:42:51.592Z,20.51
2022-09-23T14:44:23.523Z,20.45
2022-09-23T14:45:58.691Z,20.39
2022-09-23T14:47:30.614Z,20.36
2022-09-23T14:49:07.528Z,20.35
2022-09-23T14:50:40.911Z,20.28
2022-09-23T14:52:12.667Z,20.20
2022-09-23T14:53:46.490Z,20.14
2022-09-23T14:55:18.255Z,20.13
2022-09-23T14:56:49.914Z,20.11
2022-09-23T14:58:22.665Z,20.07
2022-09-23T14:59:59.261Z,20.05
2022-09-23T15:01:31.292Z,19.92
2022-09-23T15:03:04.004Z,19.85
2022-09-23T15:04:35.717Z,19.73
2022-09-23T15:06:09.601Z,19.62
2022-09-23T15:07:41.432Z,19.48
2022-09-23T15:09:20.413Z,19.36
2022-09-23T15:10:52.135Z,19.23
2022-09-23T15:12:23.890Z,19.11
2022-09-23T15:13:55.559Z,19.10
2022-09-23T15:15:30.178Z,19.07
2022-09-23T15:17:01.917Z,19.07
2022-09-23T15:18:34.375Z,19.07
2022-09-23T15:20:08.498Z,19.03
2022-09-23T15:21:43.280Z,18.97
2022-09-23T15:23:31.954Z,18.92
2022-09-23T15:25:29.471Z,18.85
2022-09-23T15:27:01.078Z,18.80
2022-09-23T15:28:32.708Z,18.69
2022-09-23T15:30:15.726Z,18.63
2022-09-23T15:31:47.508Z,18.52
2022-09-23T15:33:20.177Z,18.52
2022-09-23T15:34:52.357Z,18.51
2022-09-23T15:36:26.020Z,18.48
2022-09-23T15:37:59.279Z,18.43
2022-09-23T15:39:36.111Z,18.35
2022-09-23T15:41:08.385Z,18.30
2022-09-23T15:42:41.005Z,18.27
2022-09-23T15:44:13.669Z,18.21
2022-09-23T15:45:46.818Z,18.17
2022-09-23T15:47:18.974Z,18.09
2022-09-23T15:49:04.811Z,18.06
2022-09-23T15:50:36.565Z,18.06
2022-09-23T15:52:10.450Z,18.03
2022-09-23T15:53:42.301Z,17.99
2022-09-23T15:55:15.066Z,17.95
2022-09-23T15:56:48.167Z,17.93
2022-09-23T15:58:20.737Z,17.89
2022-09-23T15:59:52.337Z,17.85
2022-09-23T16:01:25.917Z,17.76
2022-09-23T16:02:57.689Z,17.73
2022-09-23T16:04:31.551Z,17.67
2022-09-23T16:06:04.331Z,17.76
2022-09-23T16:07:36.557Z,17.89
2022-09-23T16:09:08.785Z,18.05
2022-09-23T16:10:41.050Z,18.18
2022-09-23T16:12:12.829Z,18.30
2022-09-23T16:13:44.572Z,18.36
2022-09-23T16:15:20.025Z,18.38
2022-09-23T16:16:51.766Z,18.30
2022-09-23T16:18:23.634Z,18.17
2022-09-23T16:19:55.462Z,18.02
2022-09-23T16:21:27.338Z,17.88
2022-09-23T16:23:00.272Z,17.71
2022-09-23T16:24:31.829Z,17.55
2022-09-23T16:26:20.648Z,17.32
2022-09-23T16:27:55.808Z,17.16
2022-09-23T16:29:27.643Z,17.03
2022-09-23T16:30:59.689Z,16.87
2022-09-23T16:32:31.402Z,16.66
2022-09-23T16:34:03.442Z,16.50
2022-09-23T16:35:35.057Z,16.33
2022-09-23T16:37:07.422Z,16.18
2022-09-23T16:38:39.032Z,16.07
2022-09-23T16:40:10.943Z,15.96
2022-09-23T16:41:43.740Z,15.84
2022-09-23T16:43:15.516Z,15.80
2022-09-23T16:44:47.941Z,15.73
2022-09-23T16:46:20.663Z,15.68
2022-09-23T16:47:52.529Z,15.60
2022-09-23T16:49:24.390Z,15.53
2022-09-23T16:50:56.027Z,15.48
2022-09-23T16:52:29.427Z,15.44
2022-09-23T16:54:01.095Z,15.43
2022-09-23T16:55:32.856Z,15.39
2022-09-23T16:57:04.584Z,15.36
2022-09-23T16:58:36.752Z,15.34
2022-09-23T17:00:28.573Z,15.30
2022-09-23T17:02:19.096Z,15.22
2022-09-23T17:03:50.939Z,15.13
2022-09-23T17:05:22.984Z,15.03
2022-09-23T17:06:55.281Z,14.99
2022-09-23T17:08:26.868Z,14.94
2022-09-23T17:09:58.861Z,14.92
2022-09-23T17:11:33.989Z,14.89
2022-09-23T17:13:06.300Z,14.82
2022-09-23T17:14:38.227Z,14.77
2022-09-23T17:16:21.921Z,14.73
2022-09-23T17:17:53.718Z,14.69
2022-09-23T17:19:25.613Z,14.63
2022-09-23T17:20:58.353Z,14.59
2022-09-23T17:22:30.329Z,14.52
2022-09-23T17:24:02.268Z,14.49
2022-09-23T17:25:34.329Z,14.44
2022-09-23T17:27:05.954Z,14.39
2022-09-23T17:28:37.687Z,14.35
2022-09-23T17:30:10.015Z,14.29
2022-09-23T17:31:41.576Z,14.26
2022-09-23T17:33:13.936Z,14.20
2022-09-23T17:34:45.569Z,14.16
2022-09-23T17:36:17.779Z,14.15
2022-09-23T17:37:50.201Z,14.12
2022-09-23T17:39:22.333Z,14.06
2022-09-23T17:40:55.674Z,14.01
2022-09-23T17:42:27.949Z,13.98
2022-09-23T17:44:00.633Z,13.93
2022-09-23T17:45:32.247Z,13.90
2022-09-23T17:47:05.756Z,13.87
2022-09-23T17:48:38.041Z,13.83
2022-09-23T17:50:12.792Z,13.83
2022-09-23T17:51:44.441Z,13.81
2022-09-23T17:53:17.207Z,13.82
2022-09-23T17:54:49.052Z,13.84
2022-09-23T17:56:21.932Z,13.86
2022-09-23T17:57:53.913Z,13.84
2022-09-23T17:59:26.019Z,13.80
2022-09-23T18:00:58.164Z,13.74
2022-09-23T18:02:29.850Z,13.68
2022-09-23T18:04:01.819Z,13.65
2022-09-23T18:05:33.659Z,13.61
2022-09-23T18:07:05.222Z,13.57
2022-09-23T18:08:36.865Z,13.57
2022-09-23T18:10:08.751Z,13.57
2022-09-23T18:11:41.212Z,13.58
2022-09-23T18:13:12.736Z,13.57
2022-09-23T18:14:45.637Z,13.55
2022-09-23T18:16:17.706Z,13.54
2022-09-23T18:17:49.766Z,13.52
2022-09-23T18:19:22.585Z,13.46
2022-09-23T18:20:58.247Z,13.34
2022-09-23T18:22:30.047Z,13.29
2022-09-23T18:25:53.478Z,13.09
2022-09-23T18:27:25.031Z,13.06
2022-09-23T18:29:00.258Z,12.99
2022-09-23T18:30:33.693Z,12.96
2022-09-23T18:32:05.529Z,12.91
2022-09-23T18:33:37.370Z,12.87
2022-09-23T18:35:09.107Z,12.85
2022-09-23T18:36:40.670Z,12.82
2022-09-23T18:38:15.217Z,12.79
2022-09-23T18:39:48.718Z,12.75
2022-09-23T18:41:20.261Z,12.68
2022-09-23T18:42:52.002Z,12.64
2022-09-23T18:44:24.368Z,12.59
2022-09-23T18:46:01.290Z,12.54
2022-09-23T18:47:51.399Z,12.49
2022-09-23T18:49:41.874Z,12.42
2022-09-23T18:51:13.681Z,12.35
2022-09-23T18:52:45.220Z,12.29
2022-09-23T18:54:16.799Z,12.22
2022-09-23T18:55:48.765Z,12.17
2022-09-23T18:57:20.546Z,12.15
2022-09-23T18:58:53.399Z,12.12
2022-09-23T19:00:25.547Z,12.10
2022-09-23T19:01:57.866Z,12.07
2022-09-23T19:03:29.632Z,12.08
2022-09-23T19:05:02.203Z,12.01
2022-09-23T19:06:35.066Z,11.96
2022-09-23T19:08:06.998Z,11.89
2022-09-23T19:09:39.230Z,11.86
2022-09-23T19:11:12.520Z,11.84
2022-09-23T19:12:44.215Z,11.85
2022-09-23T19:14:16.030Z,11.87
2022-09-23T19:15:48.629Z,11.85
2022-09-23T19:17:20.857Z,11.84
2022-09-23T19:18:52.862Z,11.81
2022-09-23T19:20:25.513Z,11.76
2022-09-23T19:21:57.136Z,11.72
2022-09-23T19:23:29.532Z,11.67
2022-09-23T19:25:01.387Z,11.65
2022-09-23T19:26:37.766Z,11.57
2022-09-23T19:28:09.535Z,11.54
2022-09-23T19:29:42.145Z,11.50
2022-09-23T19:31:15.335Z,11.49
2022-09-23T19:32:47.253Z,11.50
2022-09-23T19:34:19.998Z,11.46
2022-09-23T19:35:53.988Z,11.43
2022-09-23T19:37:26.276Z,11.42
2022-09-23T19:38:58.809Z,11.41
2022-09-23T19:40:30.908Z,11.39
2022-09-23T19:42:03.987Z,11.38
2022-09-23T19:43:38.719Z,11.39
2022-09-23T19:45:11.198Z,11.38
2022-09-23T19:46:45.424Z,11.38
2022-09-23T19:48:17.567Z,11.39
2022-09-23T19:49:49.568Z,11.38
2022-09-23T19:51:21.791Z,11.36
2022-09-23T19:52:53.903Z,11.33
2022-09-23T19:54:27.683Z,11.32
2022-09-23T19:56:03.150Z,11.30
2022-09-23T19:57:35.093Z,11.26
2022-09-23T19:59:09.537Z,11.21
2022-09-23T20:00:41.841Z,11.14
2022-09-23T20:02:14.601Z,11.03
2022-09-23T20:03:47.561Z,10.93
2022-09-23T20:05:20.860Z,10.86
2022-09-23T20:06:52.937Z,10.81
2022-09-23T20:08:24.922Z,10.77
2022-09-23T20:09:57.142Z,10.73
2022-09-23T20:11:28.965Z,10.68
2022-09-23T20:13:00.900Z,10.63
2022-09-23T20:14:33.214Z,10.58
2022-09-23T20:16:12.558Z,10.47
2022-09-23T20:17:45.429Z,10.41
2022-09-23T20:19:17.298Z,10.39
2022-09-23T20:20:54.304Z,10.36
2022-09-23T20:22:29.582Z,10.37
2022-09-23T20:24:06.082Z,10.30
2022-09-23T20:25:56.512Z,10.23
2022-09-23T20:27:31.569Z,10.21
2022-09-23T20:29:04.233Z,10.22
2022-09-23T20:30:38.857Z,10.22
2022-09-23T20:32:11.644Z,10.27
2022-09-23T20:33:43.568Z,10.33
2022-09-23T20:35:17.650Z,10.38
2022-09-23T20:36:49.827Z,10.41
2022-09-23T20:38:21.638Z,10.41
2022-09-23T20:39:53.434Z,10.43
2022-09-23T20:41:26.025Z,10.41
2022-09-23T20:42:59.202Z,10.42
2022-09-23T20:44:31.229Z,10.42
2022-09-23T20:46:04.108Z,10.42
2022-09-23T20:47:36.029Z,10.39
2022-09-23T20:49:08.997Z,10.37
2022-09-23T20:50:42.045Z,10.34
2022-09-23T20:52:14.560Z,10.35
2022-09-23T20:53:49.447Z,10.32
2022-09-23T20:55:21.102Z,10.31
2022-09-23T20:56:53.654Z,10.29
2022-09-23T20:58:29.924Z,10.29
2022-09-23T21:00:02.261Z,10.28
2022-09-23T21:01:35.359Z,10.27
2022-09-23T21:03:07.645Z,10.28
2022-09-23T21:04:39.388Z,10.26
2022-09-23T21:06:11.927Z,10.26
2022-09-23T21:07:46.666Z,10.24
2022-09-23T21:09:18.431Z,10.23
2022-09-23T21:10:59.147Z,10.16
2022-09-23T21:12:31.954Z,10.08
2022-09-23T21:14:04.273Z,10.03
2022-09-23T21:15:36.215Z,10.01
2022-09-23T21:17:07.973Z,10.03
2022-09-23T21:18:39.663Z,10.03
2022-09-23T21:20:11.650Z,10.00
2022-09-23T21:21:43.472Z,9.98
2022-09-23T21:23:15.171Z,9.98
2022-09-23T21:26:41.401Z,9.96
2022-09-23T21:28:13.616Z,9.95
2022-09-23T21:29:45.176Z,9.92
2022-09-23T21:31:22.997Z,9.92
2022-09-23T21:32:55.086Z,9.91
2022-09-23T21:34:28.398Z,9.88
2022-09-23T21:36:03.855Z,9.83
2022-09-23T21:37:35.759Z,9.79
2022-09-23T21:39:07.989Z,9.77
2022-09-23T21:40:58.201Z,9.75
2022-09-23T21:42:30.123Z,9.69
2022-09-23T21:44:04.615Z,9.61
2022-09-23T21:45:36.509Z,9.56
2022-09-23T21:47:08.215Z,9.50
2022-09-23T21:48:43.289Z,9.46
2022-09-23T21:50:15.050Z,9.43
2022-09-23T21:51:47.770Z,9.40
2022-09-23T21:53:20.165Z,9.37
2022-09-23T21:54:52.299Z,9.35
2022-09-23T21:56:24.581Z,9.33
2022-09-23T21:57:56.709Z,9.33
2022-09-23T21:59:28.360Z,9.34
2022-09-23T22:01:00.309Z,9.34
2022-09-23T22:02:32.138Z,9.35